sensor_id;sensor_type;location;lat;lon;timestamp;temperature;humidity
65203;HTU21D;51788;45.124;38.966;2023-03-01T00:02:03;6.34;74.57
65203;HTU21D;51788;45.124;38.966;2023-03-01T00:04:30;6.30;74.48
65203;HTU21D;51788;45.124;38.966;2023-03-01T00:06:56;6.22;74.60
65203;HTU21D;51788;45.124;38.966;2023-03-01T00:09:22;6.20;74.64
65203;HTU21D;51788;45.124;38.966;2023-03-01T00:11:48;6.22;74.64
65203;HTU21D;51788;45.124;38.966;2023-03-01T00:14:15;6.26;74.54
65203;HTU21D;51788;45.124;38.966;2023-03-01T00:16:45;6.26;74.40
65203;HTU21D;51788;45.124;38.966;2023-03-01T00:19:14;6.25;74.42
65203;HTU21D;51788;45.124;38.966;2023-03-01T00:21:40;6.29;74.31
65203;HTU21D;51788;45.124;38.966;2023-03-01T00:24:06;6.24;74.20
65203;HTU21D;51788;45.124;38.966;2023-03-01T00:26:32;6.16;74.32
65203;HTU21D;51788;45.124;38.966;2023-03-01T00:28:59;6.15;74.46
65203;HTU21D;51788;45.124;38.966;2023-03-01T00:31:28;6.22;74.42
65203;HTU21D;51788;45.124;38.966;2023-03-01T00:33:56;6.27;74.28
65203;HTU21D;51788;45.124;38.966;2023-03-01T00:36:25;6.31;74.23
65203;HTU21D;51788;45.124;38.966;2023-03-01T00:38:51;6.28;74.09
65203;HTU21D;51788;45.124;38.966;2023-03-01T00:41:18;6.21;74.21
65203;HTU21D;51788;45.124;38.966;2023-03-01T00:43:44;6.11;74.28
65203;HTU21D;51788;45.124;38.966;2023-03-01T00:46:15;6.10;74.41
65203;HTU21D;51788;45.124;38.966;2023-03-01T00:48:42;6.14;74.30
65203;HTU21D;51788;45.124;38.966;2023-03-01T00:51:10;6.15;74.15
65203;HTU21D;51788;45.124;38.966;2023-03-01T00:53:37;6.22;74.09
65203;HTU21D;51788;45.124;38.966;2023-03-01T00:56:04;6.27;73.96
65203;HTU21D;51788;45.124;38.966;2023-03-01T00:58:31;6.24;73.81
65203;HTU21D;51788;45.124;38.966;2023-03-01T01:00:57;6.20;73.91
65203;HTU21D;51788;45.124;38.966;2023-03-01T01:03:23;6.20;73.91
65203;HTU21D;51788;45.124;38.966;2023-03-01T01:05:51;6.22;73.86
65203;HTU21D;51788;45.124;38.966;2023-03-01T01:08:19;6.22;73.83
65203;HTU21D;51788;45.124;38.966;2023-03-01T01:10:46;6.21;73.82
65203;HTU21D;51788;45.124;38.966;2023-03-01T01:13:13;6.21;73.76
65203;HTU21D;51788;45.124;38.966;2023-03-01T01:15:39;6.20;73.65
65203;HTU21D;51788;45.124;38.966;2023-03-01T01:18:05;6.19;73.65
65203;HTU21D;51788;45.124;38.966;2023-03-01T01:20:32;6.20;73.58
65203;HTU21D;51788;45.124;38.966;2023-03-01T01:22:58;6.16;73.51
65203;HTU21D;51788;45.124;38.966;2023-03-01T01:25:24;6.15;73.57
65203;HTU21D;51788;45.124;38.966;2023-03-01T01:27:52;6.11;73.57
65203;HTU21D;51788;45.124;38.966;2023-03-01T01:30:18;6.10;73.62
65203;HTU21D;51788;45.124;38.966;2023-03-01T01:32:44;6.08;73.61
65203;HTU21D;51788;45.124;38.966;2023-03-01T01:35:10;6.08;73.70
65203;HTU21D;51788;45.124;38.966;2023-03-01T01:37:36;6.14;73.59
65203;HTU21D;51788;45.124;38.966;2023-03-01T01:40:02;6.06;73.57
65203;HTU21D;51788;45.124;38.966;2023-03-01T01:42:31;6.05;73.61
65203;HTU21D;51788;45.124;38.966;2023-03-01T01:45:33;6.02;73.63
65203;HTU21D;51788;45.124;38.966;2023-03-01T01:48:13;5.96;73.63
65203;HTU21D;51788;45.124;38.966;2023-03-01T01:50:41;5.94;73.62
65203;HTU21D;51788;45.124;38.966;2023-03-01T01:53:16;5.86;73.77
65203;HTU21D;51788;45.124;38.966;2023-03-01T01:55:48;5.90;73.80
65203;HTU21D;51788;45.124;38.966;2023-03-01T01:58:18;5.87;73.72
65203;HTU21D;51788;45.124;38.966;2023-03-01T02:00:45;5.87;73.70
65203;HTU21D;51788;45.124;38.966;2023-03-01T02:03:15;5.86;73.73
65203;HTU21D;51788;45.124;38.966;2023-03-01T02:06:04;5.91;73.80
65203;HTU21D;51788;45.124;38.966;2023-03-01T02:08:34;5.95;73.67
65203;HTU21D;51788;45.124;38.966;2023-03-01T02:11:01;5.94;73.73
65203;HTU21D;51788;45.124;38.966;2023-03-01T02:13:30;5.93;73.72
65203;HTU21D;51788;45.124;38.966;2023-03-01T02:15:57;5.91;73.66
65203;HTU21D;51788;45.124;38.966;2023-03-01T02:18:24;5.80;73.81
65203;HTU21D;51788;45.124;38.966;2023-03-01T02:23:31;5.66;74.27
65203;HTU21D;51788;45.124;38.966;2023-03-01T02:26:10;5.63;74.27
65203;HTU21D;51788;45.124;38.966;2023-03-01T02:28:40;5.60;74.33
65203;HTU21D;51788;45.124;38.966;2023-03-01T02:31:09;5.62;74.45
65203;HTU21D;51788;45.124;38.966;2023-03-01T02:33:54;5.60;74.38
65203;HTU21D;51788;45.124;38.966;2023-03-01T02:36:24;5.62;74.38
65203;HTU21D;51788;45.124;38.966;2023-03-01T02:38:53;5.61;74.41
65203;HTU21D;51788;45.124;38.966;2023-03-01T02:41:21;5.59;74.45
65203;HTU21D;51788;45.124;38.966;2023-03-01T02:43:49;5.55;74.43
65203;HTU21D;51788;45.124;38.966;2023-03-01T02:46:21;5.45;74.59
65203;HTU21D;51788;45.124;38.966;2023-03-01T02:48:52;5.43;74.79
65203;HTU21D;51788;45.124;38.966;2023-03-01T02:51:32;5.49;74.71
65203;HTU21D;51788;45.124;38.966;2023-03-01T02:54:25;5.48;74.76
65203;HTU21D;51788;45.124;38.966;2023-03-01T02:56:54;5.47;74.74
65203;HTU21D;51788;45.124;38.966;2023-03-01T02:59:26;5.47;74.80
65203;HTU21D;51788;45.124;38.966;2023-03-01T03:01:52;5.48;74.83
65203;HTU21D;51788;45.124;38.966;2023-03-01T03:04:19;5.46;74.91
65203;HTU21D;51788;45.124;38.966;2023-03-01T03:06:50;5.41;74.89
65203;HTU21D;51788;45.124;38.966;2023-03-01T03:09:17;5.38;74.96
65203;HTU21D;51788;45.124;38.966;2023-03-01T03:11:44;5.35;75.09
65203;HTU21D;51788;45.124;38.966;2023-03-01T03:14:13;5.31;75.18
65203;HTU21D;51788;45.124;38.966;2023-03-01T03:16:44;5.33;75.11
65203;HTU21D;51788;45.124;38.966;2023-03-01T03:19:11;5.34;75.12
65203;HTU21D;51788;45.124;38.966;2023-03-01T03:21:37;5.37;75.02
65203;HTU21D;51788;45.124;38.966;2023-03-01T03:24:04;5.38;74.93
65203;HTU21D;51788;45.124;38.966;2023-03-01T03:26:30;5.40;75.02
65203;HTU21D;51788;45.124;38.966;2023-03-01T03:28:57;5.41;74.96
65203;HTU21D;51788;45.124;38.966;2023-03-01T03:31:23;5.45;74.91
65203;HTU21D;51788;45.124;38.966;2023-03-01T03:33:48;5.42;74.91
65203;HTU21D;51788;45.124;38.966;2023-03-01T03:36:16;5.43;74.99
65203;HTU21D;51788;45.124;38.966;2023-03-01T03:38:44;5.41;74.99
65203;HTU21D;51788;45.124;38.966;2023-03-01T03:41:11;5.38;75.07
65203;HTU21D;51788;45.124;38.966;2023-03-01T03:43:39;5.37;75.09
65203;HTU21D;51788;45.124;38.966;2023-03-01T03:46:06;5.38;75.17
65203;HTU21D;51788;45.124;38.966;2023-03-01T03:48:41;5.39;75.17
65203;HTU21D;51788;45.124;38.966;2023-03-01T03:51:09;5.36;75.18
65203;HTU21D;51788;45.124;38.966;2023-03-01T03:53:35;5.35;75.25
65203;HTU21D;51788;45.124;38.966;2023-03-01T03:56:01;5.33;75.23
65203;HTU21D;51788;45.124;38.966;2023-03-01T03:58:27;5.31;75.27
65203;HTU21D;51788;45.124;38.966;2023-03-01T04:00:56;5.30;75.38
65203;HTU21D;51788;45.124;38.966;2023-03-01T04:03:23;5.27;75.40
65203;HTU21D;51788;45.124;38.966;2023-03-01T04:05:50;5.25;75.51
65203;HTU21D;51788;45.124;38.966;2023-03-01T04:08:18;5.24;75.58
65203;HTU21D;51788;45.124;38.966;2023-03-01T04:10:48;5.25;75.62
65203;HTU21D;51788;45.124;38.966;2023-03-01T04:13:17;5.22;75.65
65203;HTU21D;51788;45.124;38.966;2023-03-01T04:15:46;5.22;75.54
65203;HTU21D;51788;45.124;38.966;2023-03-01T04:18:15;5.21;75.50
65203;HTU21D;51788;45.124;38.966;2023-03-01T04:20:42;5.20;75.57
65203;HTU21D;51788;45.124;38.966;2023-03-01T04:23:15;5.17;75.67
65203;HTU21D;51788;45.124;38.966;2023-03-01T04:25:55;5.16;75.75
65203;HTU21D;51788;45.124;38.966;2023-03-01T04:30:47;5.19;75.69
65203;HTU21D;51788;45.124;38.966;2023-03-01T04:33:13;5.17;75.68
65203;HTU21D;51788;45.124;38.966;2023-03-01T04:35:39;5.17;75.83
65203;HTU21D;51788;45.124;38.966;2023-03-01T04:38:06;5.18;75.78
65203;HTU21D;51788;45.124;38.966;2023-03-01T04:40:32;5.20;75.87
65203;HTU21D;51788;45.124;38.966;2023-03-01T04:42:58;5.21;75.93
65203;HTU21D;51788;45.124;38.966;2023-03-01T04:45:24;5.22;75.98
65203;HTU21D;51788;45.124;38.966;2023-03-01T04:47:50;5.18;76.05
65203;HTU21D;51788;45.124;38.966;2023-03-01T04:50:18;5.18;76.25
65203;HTU21D;51788;45.124;38.966;2023-03-01T04:52:49;5.19;76.15
65203;HTU21D;51788;45.124;38.966;2023-03-01T04:55:15;5.18;76.25
65203;HTU21D;51788;45.124;38.966;2023-03-01T04:57:41;5.20;76.24
65203;HTU21D;51788;45.124;38.966;2023-03-01T05:00:10;5.22;76.26
65203;HTU21D;51788;45.124;38.966;2023-03-01T05:02:47;5.17;76.27
65203;HTU21D;51788;45.124;38.966;2023-03-01T05:05:15;5.17;76.67
65203;HTU21D;51788;45.124;38.966;2023-03-01T05:07:40;5.17;76.51
65203;HTU21D;51788;45.124;38.966;2023-03-01T05:10:07;5.18;76.47
65203;HTU21D;51788;45.124;38.966;2023-03-01T05:12:33;5.19;76.44
65203;HTU21D;51788;45.124;38.966;2023-03-01T05:14:59;5.23;76.40
65203;HTU21D;51788;45.124;38.966;2023-03-01T05:17:25;5.28;76.24
65203;HTU21D;51788;45.124;38.966;2023-03-01T05:19:51;5.30;76.28
65203;HTU21D;51788;45.124;38.966;2023-03-01T05:22:16;5.31;76.25
65203;HTU21D;51788;45.124;38.966;2023-03-01T05:24:42;5.31;76.19
65203;HTU21D;51788;45.124;38.966;2023-03-01T05:27:08;5.30;76.40
65203;HTU21D;51788;45.124;38.966;2023-03-01T05:29:34;5.23;76.40
65203;HTU21D;51788;45.124;38.966;2023-03-01T05:32:01;5.17;76.65
65203;HTU21D;51788;45.124;38.966;2023-03-01T05:34:31;5.19;76.76
65203;HTU21D;51788;45.124;38.966;2023-03-01T05:36:58;5.23;76.74
65203;HTU21D;51788;45.124;38.966;2023-03-01T05:39:25;5.27;76.74
65203;HTU21D;51788;45.124;38.966;2023-03-01T05:41:58;5.34;76.68
65203;HTU21D;51788;45.124;38.966;2023-03-01T05:44:25;5.34;76.48
65203;HTU21D;51788;45.124;38.966;2023-03-01T05:46:51;5.34;76.57
65203;HTU21D;51788;45.124;38.966;2023-03-01T05:49:18;5.35;76.58
65203;HTU21D;51788;45.124;38.966;2023-03-01T05:51:48;5.42;76.58
65203;HTU21D;51788;45.124;38.966;2023-03-01T05:54:14;5.43;76.36
65203;HTU21D;51788;45.124;38.966;2023-03-01T05:56:40;5.41;76.39
65203;HTU21D;51788;45.124;38.966;2023-03-01T05:59:06;5.32;76.52
65203;HTU21D;51788;45.124;38.966;2023-03-01T06:01:33;5.34;76.78
65203;HTU21D;51788;45.124;38.966;2023-03-01T06:03:59;5.39;76.49
65203;HTU21D;51788;45.124;38.966;2023-03-01T06:06:27;5.33;76.73
65203;HTU21D;51788;45.124;38.966;2023-03-01T06:08:54;5.33;76.82
65203;HTU21D;51788;45.124;38.966;2023-03-01T06:11:20;5.42;76.79
65203;HTU21D;51788;45.124;38.966;2023-03-01T06:13:47;5.55;76.49
65203;HTU21D;51788;45.124;38.966;2023-03-01T06:16:14;5.61;76.32
65203;HTU21D;51788;45.124;38.966;2023-03-01T06:18:40;5.65;76.31
65203;HTU21D;51788;45.124;38.966;2023-03-01T06:21:07;5.72;76.10
65203;HTU21D;51788;45.124;38.966;2023-03-01T06:23:34;5.69;75.91
65203;HTU21D;51788;45.124;38.966;2023-03-01T06:26:04;5.68;76.08
65203;HTU21D;51788;45.124;38.966;2023-03-01T06:28:30;5.75;75.95
65203;HTU21D;51788;45.124;38.966;2023-03-01T06:30:56;5.79;75.70
65203;HTU21D;51788;45.124;38.966;2023-03-01T06:33:22;5.79;75.63
65203;HTU21D;51788;45.124;38.966;2023-03-01T06:35:50;5.86;75.59
65203;HTU21D;51788;45.124;38.966;2023-03-01T06:38:16;5.89;75.33
65203;HTU21D;51788;45.124;38.966;2023-03-01T06:40:45;5.87;75.28
65203;HTU21D;51788;45.124;38.966;2023-03-01T06:43:16;6.00;75.19
65203;HTU21D;51788;45.124;38.966;2023-03-01T06:45:42;5.97;74.78
65203;HTU21D;51788;45.124;38.966;2023-03-01T06:48:08;5.97;74.82
65203;HTU21D;51788;45.124;38.966;2023-03-01T06:50:34;6.02;74.87
65203;HTU21D;51788;45.124;38.966;2023-03-01T06:53:01;6.11;74.66
65203;HTU21D;51788;45.124;38.966;2023-03-01T06:55:27;6.12;74.37
65203;HTU21D;51788;45.124;38.966;2023-03-01T06:57:57;6.09;74.25
65203;HTU21D;51788;45.124;38.966;2023-03-01T07:00:25;6.12;74.38
65203;HTU21D;51788;45.124;38.966;2023-03-01T07:02:52;6.17;74.18
65203;HTU21D;51788;45.124;38.966;2023-03-01T07:05:17;6.23;74.08
65203;HTU21D;51788;45.124;38.966;2023-03-01T07:07:43;6.26;73.86
65203;HTU21D;51788;45.124;38.966;2023-03-01T07:10:10;6.21;73.99
65203;HTU21D;51788;45.124;38.966;2023-03-01T07:12:36;6.21;73.99
65203;HTU21D;51788;45.124;38.966;2023-03-01T07:15:03;6.16;73.99
65203;HTU21D;51788;45.124;38.966;2023-03-01T07:17:29;6.22;74.16
65203;HTU21D;51788;45.124;38.966;2023-03-01T07:19:55;6.31;74.02
65203;HTU21D;51788;45.124;38.966;2023-03-01T07:22:21;6.40;73.83
65203;HTU21D;51788;45.124;38.966;2023-03-01T07:24:47;6.50;73.73
65203;HTU21D;51788;45.124;38.966;2023-03-01T07:27:13;6.55;73.43
65203;HTU21D;51788;45.124;38.966;2023-03-01T07:29:39;6.58;73.37
65203;HTU21D;51788;45.124;38.966;2023-03-01T07:32:06;6.64;73.28
65203;HTU21D;51788;45.124;38.966;2023-03-01T07:34:32;6.70;73.22
65203;HTU21D;51788;45.124;38.966;2023-03-01T07:36:58;6.74;73.00
65203;HTU21D;51788;45.124;38.966;2023-03-01T07:39:24;6.78;72.86
65203;HTU21D;51788;45.124;38.966;2023-03-01T07:41:50;6.66;72.82
65203;HTU21D;51788;45.124;38.966;2023-03-01T07:44:20;6.56;73.25
65203;HTU21D;51788;45.124;38.966;2023-03-01T07:46:46;6.63;73.25
65203;HTU21D;51788;45.124;38.966;2023-03-01T07:49:12;6.70;73.09
65203;HTU21D;51788;45.124;38.966;2023-03-01T07:51:38;6.61;72.81
65203;HTU21D;51788;45.124;38.966;2023-03-01T07:54:04;6.60;72.93
65203;HTU21D;51788;45.124;38.966;2023-03-01T07:56:30;6.60;72.58
65203;HTU21D;51788;45.124;38.966;2023-03-01T07:58:59;6.56;72.03
65203;HTU21D;51788;45.124;38.966;2023-03-01T08:01:25;6.46;72.24
65203;HTU21D;51788;45.124;38.966;2023-03-01T08:03:51;6.55;72.31
65203;HTU21D;51788;45.124;38.966;2023-03-01T08:06:17;6.57;72.09
65203;HTU21D;51788;45.124;38.966;2023-03-01T08:08:44;6.61;72.16
65203;HTU21D;51788;45.124;38.966;2023-03-01T08:11:11;6.73;71.86
65203;HTU21D;51788;45.124;38.966;2023-03-01T08:13:38;6.87;71.43
65203;HTU21D;51788;45.124;38.966;2023-03-01T08:16:12;6.94;71.21
65203;HTU21D;51788;45.124;38.966;2023-03-01T08:18:38;7.04;71.03
65203;HTU21D;51788;45.124;38.966;2023-03-01T08:21:06;7.19;70.52
65203;HTU21D;51788;45.124;38.966;2023-03-01T08:23:32;7.26;70.42
65203;HTU21D;51788;45.124;38.966;2023-03-01T08:26:13;7.27;70.08
65203;HTU21D;51788;45.124;38.966;2023-03-01T08:28:39;7.38;69.87
65203;HTU21D;51788;45.124;38.966;2023-03-01T08:31:18;7.31;69.43
65203;HTU21D;51788;45.124;38.966;2023-03-01T08:33:45;7.32;69.35
65203;HTU21D;51788;45.124;38.966;2023-03-01T08:36:17;7.38;69.01
65203;HTU21D;51788;45.124;38.966;2023-03-01T08:38:43;7.40;68.84
65203;HTU21D;51788;45.124;38.966;2023-03-01T08:41:09;7.41;68.79
65203;HTU21D;51788;45.124;38.966;2023-03-01T08:43:35;7.48;68.93
65203;HTU21D;51788;45.124;38.966;2023-03-01T08:46:01;7.56;68.52
65203;HTU21D;51788;45.124;38.966;2023-03-01T08:48:28;7.62;68.10
65203;HTU21D;51788;45.124;38.966;2023-03-01T08:50:54;7.67;67.81
65203;HTU21D;51788;45.124;38.966;2023-03-01T08:53:20;7.68;67.29
65203;HTU21D;51788;45.124;38.966;2023-03-01T08:55:46;7.62;67.19
65203;HTU21D;51788;45.124;38.966;2023-03-01T08:58:12;7.65;67.36
65203;HTU21D;51788;45.124;38.966;2023-03-01T09:00:38;7.72;67.29
65203;HTU21D;51788;45.124;38.966;2023-03-01T09:03:05;7.79;67.24
65203;HTU21D;51788;45.124;38.966;2023-03-01T09:05:33;7.85;66.99
65203;HTU21D;51788;45.124;38.966;2023-03-01T09:07:59;7.86;66.62
65203;HTU21D;51788;45.124;38.966;2023-03-01T09:10:25;7.87;66.71
65203;HTU21D;51788;45.124;38.966;2023-03-01T09:12:51;7.93;66.62
65203;HTU21D;51788;45.124;38.966;2023-03-01T09:15:17;7.98;66.41
65203;HTU21D;51788;45.124;38.966;2023-03-01T09:17:43;8.00;66.41
65203;HTU21D;51788;45.124;38.966;2023-03-01T09:20:10;8.02;66.26
65203;HTU21D;51788;45.124;38.966;2023-03-01T09:22:36;8.04;66.17
65203;HTU21D;51788;45.124;38.966;2023-03-01T09:25:02;8.07;66.04
65203;HTU21D;51788;45.124;38.966;2023-03-01T09:27:28;8.06;65.80
65203;HTU21D;51788;45.124;38.966;2023-03-01T09:29:54;8.14;65.72
65203;HTU21D;51788;45.124;38.966;2023-03-01T09:32:21;8.21;65.64
65203;HTU21D;51788;45.124;38.966;2023-03-01T09:34:47;8.22;65.38
65203;HTU21D;51788;45.124;38.966;2023-03-01T09:37:33;8.23;65.53
65203;HTU21D;51788;45.124;38.966;2023-03-01T09:39:59;8.32;65.29
65203;HTU21D;51788;45.124;38.966;2023-03-01T09:42:26;8.33;65.04
65203;HTU21D;51788;45.124;38.966;2023-03-01T09:45:06;8.39;65.21
65203;HTU21D;51788;45.124;38.966;2023-03-01T09:47:34;8.33;65.01
65203;HTU21D;51788;45.124;38.966;2023-03-01T09:50:16;8.32;65.07
65203;HTU21D;51788;45.124;38.966;2023-03-01T09:58:31;8.33;65.04
65203;HTU21D;51788;45.124;38.966;2023-03-01T10:06:48;8.28;64.67
65203;HTU21D;51788;45.124;38.966;2023-03-01T10:09:18;8.30;64.69
65203;HTU21D;51788;45.124;38.966;2023-03-01T10:11:53;8.34;64.51
65203;HTU21D;51788;45.124;38.966;2023-03-01T10:14:39;8.38;64.30
65203;HTU21D;51788;45.124;38.966;2023-03-01T10:20:19;8.34;64.27
65203;HTU21D;51788;45.124;38.966;2023-03-01T10:22:45;8.38;63.81
65203;HTU21D;51788;45.124;38.966;2023-03-01T10:25:28;8.55;63.81
65203;HTU21D;51788;45.124;38.966;2023-03-01T10:28:04;8.68;63.05
65203;HTU21D;51788;45.124;38.966;2023-03-01T10:30:36;8.63;63.06
65203;HTU21D;51788;45.124;38.966;2023-03-01T10:33:19;8.67;62.72
65203;HTU21D;51788;45.124;38.966;2023-03-01T10:35:45;8.71;63.11
65203;HTU21D;51788;45.124;38.966;2023-03-01T10:38:14;8.80;62.84
65203;HTU21D;51788;45.124;38.966;2023-03-01T10:41:00;8.85;61.76
65203;HTU21D;51788;45.124;38.966;2023-03-01T10:43:48;8.78;61.91
65203;HTU21D;51788;45.124;38.966;2023-03-01T10:46:24;8.77;62.13
65203;HTU21D;51788;45.124;38.966;2023-03-01T10:51:40;8.62;62.24
65203;HTU21D;51788;45.124;38.966;2023-03-01T10:54:17;8.51;62.11
65203;HTU21D;51788;45.124;38.966;2023-03-01T10:56:52;8.38;62.18
65203;HTU21D;51788;45.124;38.966;2023-03-01T10:59:37;8.34;62.19
65203;HTU21D;51788;45.124;38.966;2023-03-01T11:10:22;8.16;62.15
65203;HTU21D;51788;45.124;38.966;2023-03-01T11:12:50;8.19;61.83
65203;HTU21D;51788;45.124;38.966;2023-03-01T11:15:24;8.24;61.45
65203;HTU21D;51788;45.124;38.966;2023-03-01T11:17:50;8.22;60.97
65203;HTU21D;51788;45.124;38.966;2023-03-01T11:20:32;8.15;60.87
65203;HTU21D;51788;45.124;38.966;2023-03-01T11:23:18;8.12;61.15
65203;HTU21D;51788;45.124;38.966;2023-03-01T11:25:51;8.14;61.12
65203;HTU21D;51788;45.124;38.966;2023-03-01T11:28:19;8.07;60.88
65203;HTU21D;51788;45.124;38.966;2023-03-01T11:31:07;8.16;61.06
65203;HTU21D;51788;45.124;38.966;2023-03-01T11:33:58;8.14;60.55
65203;HTU21D;51788;45.124;38.966;2023-03-01T11:36:51;8.11;59.91
65203;HTU21D;51788;45.124;38.966;2023-03-01T11:39:42;8.05;60.08
65203;HTU21D;51788;45.124;38.966;2023-03-01T11:42:19;8.02;58.93
65203;HTU21D;51788;45.124;38.966;2023-03-01T11:44:49;8.09;59.25
65203;HTU21D;51788;45.124;38.966;2023-03-01T11:47:22;8.17;59.09
65203;HTU21D;51788;45.124;38.966;2023-03-01T11:50:00;8.20;58.71
65203;HTU21D;51788;45.124;38.966;2023-03-01T11:52:43;8.24;58.21
65203;HTU21D;51788;45.124;38.966;2023-03-01T11:58:32;8.17;56.82
65203;HTU21D;51788;45.124;38.966;2023-03-01T12:06:35;8.44;57.43
65203;HTU21D;51788;45.124;38.966;2023-03-01T12:09:34;8.62;56.82
65203;HTU21D;51788;45.124;38.966;2023-03-01T12:20:20;8.62;55.80
65203;HTU21D;51788;45.124;38.966;2023-03-01T12:26:27;8.48;55.81
65203;HTU21D;51788;45.124;38.966;2023-03-01T12:45:32;8.03;55.55
65203;HTU21D;51788;45.124;38.966;2023-03-01T12:50:51;8.05;55.53
65203;HTU21D;51788;45.124;38.966;2023-03-01T12:53:27;8.04;55.10
65203;HTU21D;51788;45.124;38.966;2023-03-01T12:55:58;8.00;55.19
65203;HTU21D;51788;45.124;38.966;2023-03-01T13:12:03;7.68;54.83
65203;HTU21D;51788;45.124;38.966;2023-03-01T13:16:58;7.86;55.15
65203;HTU21D;51788;45.124;38.966;2023-03-01T13:19:26;7.92;55.09
65203;HTU21D;51788;45.124;38.966;2023-03-01T13:21:55;8.00;55.01
65203;HTU21D;51788;45.124;38.966;2023-03-01T13:24:27;7.99;54.62
65203;HTU21D;51788;45.124;38.966;2023-03-01T13:34:51;7.86;54.84
65203;HTU21D;51788;45.124;38.966;2023-03-01T13:37:29;7.88;54.30
65203;HTU21D;51788;45.124;38.966;2023-03-01T13:39:57;7.87;54.18
65203;HTU21D;51788;45.124;38.966;2023-03-01T13:42:31;7.86;54.52
65203;HTU21D;51788;45.124;38.966;2023-03-01T13:44:58;7.91;54.55
65203;HTU21D;51788;45.124;38.966;2023-03-01T13:47:24;7.97;54.39
65203;HTU21D;51788;45.124;38.966;2023-03-01T13:49:55;7.92;54.55
65203;HTU21D;51788;45.124;38.966;2023-03-01T13:52:43;7.88;54.65
65203;HTU21D;51788;45.124;38.966;2023-03-01T13:58:23;7.79;54.40
65203;HTU21D;51788;45.124;38.966;2023-03-01T14:03:22;7.72;54.57
65203;HTU21D;51788;45.124;38.966;2023-03-01T14:08:32;7.65;54.84
65203;HTU21D;51788;45.124;38.966;2023-03-01T14:14:04;7.63;55.00
65203;HTU21D;51788;45.124;38.966;2023-03-01T14:19:19;7.56;55.39
65203;HTU21D;51788;45.124;38.966;2023-03-01T14:21:47;7.53;55.64
65203;HTU21D;51788;45.124;38.966;2023-03-01T14:24:21;7.48;55.65
65203;HTU21D;51788;45.124;38.966;2023-03-01T14:26:49;7.44;55.74
65203;HTU21D;51788;45.124;38.966;2023-03-01T14:29:36;7.40;56.05
65203;HTU21D;51788;45.124;38.966;2023-03-01T14:34:35;7.31;56.32
65203;HTU21D;51788;45.124;38.966;2023-03-01T14:37:25;7.27;56.56
65203;HTU21D;51788;45.124;38.966;2023-03-01T14:39:53;7.20;56.69
65203;HTU21D;51788;45.124;38.966;2023-03-01T14:42:21;7.18;56.72
65203;HTU21D;51788;45.124;38.966;2023-03-01T14:44:50;7.16;56.77
65203;HTU21D;51788;45.124;38.966;2023-03-01T14:47:30;7.14;56.57
65203;HTU21D;51788;45.124;38.966;2023-03-01T14:50:02;7.10;56.48
65203;HTU21D;51788;45.124;38.966;2023-03-01T14:52:36;7.04;56.45
65203;HTU21D;51788;45.124;38.966;2023-03-01T14:55:06;7.00;56.39
65203;HTU21D;51788;45.124;38.966;2023-03-01T14:57:32;6.97;56.09
65203;HTU21D;51788;45.124;38.966;2023-03-01T15:00:01;6.89;56.03
65203;HTU21D;51788;45.124;38.966;2023-03-01T15:02:31;6.85;56.14
65203;HTU21D;51788;45.124;38.966;2023-03-01T15:05:02;6.80;56.35
65203;HTU21D;51788;45.124;38.966;2023-03-01T15:07:32;6.71;56.34
65203;HTU21D;51788;45.124;38.966;2023-03-01T15:10:00;6.66;55.97
65203;HTU21D;51788;45.124;38.966;2023-03-01T15:14:52;6.54;55.92
65203;HTU21D;51788;45.124;38.966;2023-03-01T15:20:02;6.43;56.06
65203;HTU21D;51788;45.124;38.966;2023-03-01T15:22:29;6.40;56.22
65203;HTU21D;51788;45.124;38.966;2023-03-01T15:24:55;6.36;56.33
65203;HTU21D;51788;45.124;38.966;2023-03-01T15:27:24;6.31;56.46
65203;HTU21D;51788;45.124;38.966;2023-03-01T15:30:00;6.28;56.61
65203;HTU21D;51788;45.124;38.966;2023-03-01T15:32:35;6.25;56.71
65203;HTU21D;51788;45.124;38.966;2023-03-01T15:38:00;6.17;57.04
65203;HTU21D;51788;45.124;38.966;2023-03-01T15:40:30;6.14;57.10
65203;HTU21D;51788;45.124;38.966;2023-03-01T15:43:05;6.11;57.24
65203;HTU21D;51788;45.124;38.966;2023-03-01T15:45:33;6.08;57.41
65203;HTU21D;51788;45.124;38.966;2023-03-01T15:48:15;6.06;57.66
65203;HTU21D;51788;45.124;38.966;2023-03-01T15:50:43;6.06;57.71
65203;HTU21D;51788;45.124;38.966;2023-03-01T15:53:13;6.05;57.82
65203;HTU21D;51788;45.124;38.966;2023-03-01T15:55:40;6.02;57.95
65203;HTU21D;51788;45.124;38.966;2023-03-01T15:58:14;5.94;58.12
65203;HTU21D;51788;45.124;38.966;2023-03-01T16:00:41;5.89;58.25
65203;HTU21D;51788;45.124;38.966;2023-03-01T16:03:10;5.84;58.35
65203;HTU21D;51788;45.124;38.966;2023-03-01T16:05:37;5.83;58.48
65203;HTU21D;51788;45.124;38.966;2023-03-01T16:08:04;5.82;58.58
65203;HTU21D;51788;45.124;38.966;2023-03-01T16:10:40;5.80;58.62
65203;HTU21D;51788;45.124;38.966;2023-03-01T16:13:07;5.77;58.67
65203;HTU21D;51788;45.124;38.966;2023-03-01T16:15:33;5.68;58.80
65203;HTU21D;51788;45.124;38.966;2023-03-01T16:18:04;5.60;58.99
65203;HTU21D;51788;45.124;38.966;2023-03-01T16:20:35;5.51;59.16
65203;HTU21D;51788;45.124;38.966;2023-03-01T16:23:05;5.49;59.24
65203;HTU21D;51788;45.124;38.966;2023-03-01T16:25:32;5.45;59.26
65203;HTU21D;51788;45.124;38.966;2023-03-01T16:27:57;5.41;59.37
65203;HTU21D;51788;45.124;38.966;2023-03-01T16:30:26;5.40;59.40
65203;HTU21D;51788;45.124;38.966;2023-03-01T16:32:53;5.37;59.43
65203;HTU21D;51788;45.124;38.966;2023-03-01T16:35:20;5.38;59.50
65203;HTU21D;51788;45.124;38.966;2023-03-01T16:37:47;5.37;59.53
65203;HTU21D;51788;45.124;38.966;2023-03-01T16:40:23;5.37;59.59
65203;HTU21D;51788;45.124;38.966;2023-03-01T16:42:51;5.36;59.66
65203;HTU21D;51788;45.124;38.966;2023-03-01T16:45:18;5.30;59.77
65203;HTU21D;51788;45.124;38.966;2023-03-01T16:47:44;5.20;59.86
65203;HTU21D;51788;45.124;38.966;2023-03-01T16:50:10;5.12;60.09
65203;HTU21D;51788;45.124;38.966;2023-03-01T16:52:37;5.08;60.17
65203;HTU21D;51788;45.124;38.966;2023-03-01T16:55:05;5.02;60.28
65203;HTU21D;51788;45.124;38.966;2023-03-01T16:57:37;5.00;60.42
65203;HTU21D;51788;45.124;38.966;2023-03-01T17:00:07;4.92;60.57
65203;HTU21D;51788;45.124;38.966;2023-03-01T17:02:37;4.88;60.71
65203;HTU21D;51788;45.124;38.966;2023-03-01T17:05:03;4.84;60.85
65203;HTU21D;51788;45.124;38.966;2023-03-01T17:07:33;4.77;61.01
65203;HTU21D;51788;45.124;38.966;2023-03-01T17:10:05;4.74;61.20
65203;HTU21D;51788;45.124;38.966;2023-03-01T17:12:31;4.73;61.24
65203;HTU21D;51788;45.124;38.966;2023-03-01T17:14:58;4.71;61.27
65203;HTU21D;51788;45.124;38.966;2023-03-01T17:17:24;4.71;61.43
65203;HTU21D;51788;45.124;38.966;2023-03-01T17:19:50;4.68;61.48
65203;HTU21D;51788;45.124;38.966;2023-03-01T17:22:16;4.63;61.54
65203;HTU21D;51788;45.124;38.966;2023-03-01T17:24:43;4.59;61.65
65203;HTU21D;51788;45.124;38.966;2023-03-01T17:27:11;4.57;61.84
65203;HTU21D;51788;45.124;38.966;2023-03-01T17:29:38;4.53;61.97